createdAt,value
2018-02-08T00:02:09.498Z,96.66
2018-02-08T00:04:36.913Z,95.88
2018-02-08T00:07:04.493Z,95.34
2018-02-08T00:09:31.673Z,95.08
2018-02-08T00:11:58.797Z,94.93
2018-02-08T00:14:25.840Z,95.40
2018-02-08T00:16:53.502Z,95.68
2018-02-08T00:19:20.385Z,95.47
2018-02-08T00:21:47.926Z,96.01
2018-02-08T00:24:15.442Z,94.83
2018-02-08T00:26:42.521Z,94.42
2018-02-08T00:29:09.980Z,94.55
2018-02-08T00:31:37.351Z,93.89
2018-02-08T00:34:04.963Z,93.55
2018-02-08T00:36:32.543Z,94.51
2018-02-08T00:38:59.657Z,93.72
2018-02-08T00:41:27.206Z,94.04
2018-02-08T00:43:54.706Z,94.52
2018-02-08T00:46:22.481Z,94.99
2018-02-08T00:48:50.316Z,95.16
2018-02-08T00:51:17.606Z,95.76
2018-02-08T00:53:44.591Z,95.08
2018-02-08T00:56:11.843Z,96.31
2018-02-08T00:58:39.233Z,95.60
2018-02-08T01:01:06.524Z,95.79
2018-02-08T01:03:33.845Z,95.99
2018-02-08T01:06:01.410Z,95.67
2018-02-08T01:08:28.692Z,95.80
2018-02-08T01:10:55.806Z,95.64
2018-02-08T01:13:22.855Z,95.89
2018-02-08T01:15:50.525Z,96.34
2018-02-08T01:18:17.666Z,96.22
2018-02-08T01:20:44.673Z,96.41
2018-02-08T01:23:11.853Z,96.22
2018-02-08T01:25:38.840Z,96.80
2018-02-08T01:28:06.205Z,96.11
2018-02-08T01:30:33.466Z,95.78
2018-02-08T01:33:00.628Z,96.23
2018-02-08T01:35:28.213Z,95.31
2018-02-08T01:37:56.514Z,95.34
2018-02-08T01:40:23.691Z,95.89
2018-02-08T01:42:51.085Z,95.83
2018-02-08T01:45:18.229Z,95.59
2018-02-08T01:47:45.264Z,95.77
2018-02-08T01:50:12.612Z,96.03
2018-02-08T01:52:39.814Z,96.11
2018-02-08T01:55:07.234Z,95.91
2018-02-08T01:57:34.954Z,96.58
2018-02-08T02:00:02.516Z,96.73
2018-02-08T02:02:29.741Z,96.58
2018-02-08T02:04:56.899Z,96.99
2018-02-08T02:07:23.801Z,96.63
2018-02-08T02:09:51.079Z,95.93
2018-02-08T02:12:18.518Z,96.09
2018-02-08T02:14:45.868Z,96.27
2018-02-08T02:17:13.591Z,95.81
2018-02-08T02:19:40.885Z,96.18
2018-02-08T02:22:08.098Z,96.56
2018-02-08T02:24:35.787Z,95.93
2018-02-08T02:27:03.005Z,95.73
2018-02-08T02:29:30.236Z,95.87
2018-02-08T02:31:57.719Z,95.62
2018-02-08T02:34:24.809Z,95.96
2018-02-08T02:36:52.062Z,96.44
2018-02-08T02:39:19.293Z,96.57
2018-02-08T02:41:46.733Z,96.46
2018-02-08T02:44:14.509Z,95.94
2018-02-08T02:46:42.219Z,95.96
2018-02-08T02:49:09.344Z,96.05
2018-02-08T02:51:36.610Z,96.06
2018-02-08T02:54:03.801Z,95.74
2018-02-08T02:56:30.775Z,95.47
2018-02-08T02:58:58.193Z,95.99
2018-02-08T03:01:25.393Z,96.02
2018-02-08T03:03:53.503Z,95.31
2018-02-08T03:06:20.821Z,96.29
2018-02-08T03:08:48.213Z,96.00
2018-02-08T03:11:15.402Z,96.44
2018-02-08T03:13:42.485Z,96.71
2018-02-08T03:16:10.212Z,96.21
2018-02-08T03:18:37.493Z,96.81
2018-02-08T03:21:05.131Z,96.24
2018-02-08T03:23:32.490Z,96.65
2018-02-08T03:25:59.698Z,96.34
2018-02-08T03:28:27.033Z,96.34
2018-02-08T03:30:56.351Z,96.34
2018-02-08T03:33:23.849Z,96.32
2018-02-08T03:35:51.103Z,96.40
2018-02-08T03:38:18.565Z,96.16
2018-02-08T03:40:46.220Z,96.00
2018-02-08T03:43:13.524Z,95.78
2018-02-08T03:45:40.869Z,95.98
2018-02-08T03:48:08.063Z,96.04
2018-02-08T03:50:36.051Z,96.36
2018-02-08T03:53:03.584Z,96.40
2018-02-08T03:55:30.818Z,96.16
2018-02-08T03:57:57.904Z,96.29
2018-02-08T04:00:25.685Z,96.92
2018-02-08T04:02:52.725Z,95.70
2018-02-08T04:05:20.180Z,96.09
2018-02-08T04:07:47.687Z,96.07
2018-02-08T04:10:15.261Z,97.13
2018-02-08T04:12:42.578Z,97.19
2018-02-08T04:15:10.191Z,97.68
2018-02-08T04:17:37.497Z,97.69
2018-02-08T04:20:04.772Z,97.27
2018-02-08T04:22:32.246Z,97.28
2018-02-08T04:24:59.166Z,96.97
2018-02-08T04:27:26.298Z,97.55
2018-02-08T04:29:53.928Z,97.45
2018-02-08T04:32:21.391Z,97.96
2018-02-08T04:34:49.165Z,97.55
2018-02-08T04:37:16.513Z,97.73
2018-02-08T04:39:55.848Z,97.49
2018-02-08T04:42:29.549Z,97.60
2018-02-08T04:45:08.477Z,96.91
2018-02-08T04:50:38.444Z,96.29
2018-02-08T04:53:08.423Z,96.35
2018-02-08T04:55:37.838Z,95.40
2018-02-08T04:58:07.138Z,94.96
2018-02-08T05:00:36.511Z,94.53
2018-02-08T05:03:06.042Z,94.56
2018-02-08T05:05:35.397Z,94.47
2018-02-08T05:08:04.590Z,94.07
2018-02-08T05:10:33.950Z,94.12
2018-02-08T05:13:03.725Z,94.56
2018-02-08T05:15:33.243Z,94.70
2018-02-08T05:18:03.286Z,93.37
2018-02-08T05:20:32.595Z,94.21
2018-02-08T05:23:02.511Z,95.75
2018-02-08T05:25:32.103Z,95.84
2018-02-08T05:28:01.620Z,93.55
2018-02-08T05:30:31.200Z,92.04
2018-02-08T05:33:00.694Z,91.45
2018-02-08T05:35:29.985Z,91.18
2018-02-08T05:37:59.573Z,91.37
2018-02-08T05:40:29.751Z,90.98
2018-02-08T05:42:59.173Z,90.42
2018-02-08T05:45:28.350Z,90.24
2018-02-08T05:47:58.129Z,90.84
2018-02-08T05:50:27.502Z,90.92
2018-02-08T05:52:56.620Z,93.33
2018-02-08T05:55:26.176Z,95.02
2018-02-08T05:57:55.311Z,95.59
2018-02-08T06:00:24.338Z,96.45
2018-02-08T06:02:53.609Z,96.93
2018-02-08T06:05:22.950Z,97.15
2018-02-08T06:07:52.645Z,97.34
2018-02-08T06:10:21.946Z,97.53
2018-02-08T06:12:51.132Z,97.80
2018-02-08T06:15:20.189Z,97.96
2018-02-08T06:17:49.488Z,97.98
2018-02-08T06:20:18.801Z,97.78
2018-02-08T06:22:48.249Z,98.32
2018-02-08T06:25:17.629Z,98.76
2018-02-08T06:27:46.978Z,98.58
2018-02-08T06:30:16.189Z,98.76
2018-02-08T06:32:45.230Z,99.04
2018-02-08T06:35:14.375Z,99.20
2018-02-08T06:37:44.311Z,98.08
2018-02-08T06:40:13.542Z,97.69
2018-02-08T06:42:42.657Z,95.85
2018-02-08T06:45:12.084Z,95.41
2018-02-08T06:47:41.218Z,94.74
2018-02-08T06:50:10.672Z,95.66
2018-02-08T06:52:40.240Z,95.34
2018-02-08T06:55:09.698Z,93.96
2018-02-08T06:57:39.218Z,95.86
2018-02-08T07:00:08.622Z,95.02
2018-02-08T07:02:37.871Z,95.40
2018-02-08T07:05:07.101Z,95.63
2018-02-08T07:07:36.389Z,93.85
2018-02-08T07:10:05.597Z,94.33
2018-02-08T07:12:35.944Z,93.40
2018-02-08T07:15:05.309Z,95.20
2018-02-08T07:17:34.765Z,94.67
2018-02-08T07:20:04.461Z,94.51
2018-02-08T07:22:34.050Z,92.04
2018-02-08T07:25:03.658Z,94.99
2018-02-08T07:27:33.362Z,95.15
2018-02-08T07:30:02.658Z,94.36
2018-02-08T07:32:32.295Z,90.92
2018-02-08T07:35:01.554Z,93.82
2018-02-08T07:37:30.605Z,94.20
2018-02-08T07:39:59.656Z,94.29
2018-02-08T07:42:29.284Z,95.06
2018-02-08T07:44:58.361Z,95.51
2018-02-08T07:47:27.452Z,94.73
2018-02-08T07:49:57.224Z,95.49
2018-02-08T07:52:27.076Z,96.24
2018-02-08T07:54:56.514Z,96.36
2018-02-08T07:57:25.713Z,96.24
2018-02-08T07:59:54.776Z,95.45
2018-02-08T08:02:23.885Z,95.23
2018-02-08T08:04:52.862Z,94.62
2018-02-08T08:07:22.289Z,95.22
2018-02-08T08:09:51.273Z,94.06
2018-02-08T08:12:20.460Z,92.76
2018-02-08T08:14:49.563Z,92.27
2018-02-08T08:17:18.898Z,93.19
2018-02-08T08:19:48.361Z,93.35
2018-02-08T08:22:17.959Z,93.29
2018-02-08T08:24:47.060Z,92.93
2018-02-08T08:27:16.634Z,93.20
2018-02-08T08:29:45.821Z,92.94
2018-02-08T08:32:15.141Z,92.74
2018-02-08T08:34:44.163Z,93.36
2018-02-08T08:37:13.173Z,92.85
2018-02-08T08:39:42.289Z,92.19
2018-02-08T08:42:11.872Z,92.76
2018-02-08T08:44:41.159Z,92.79
2018-02-08T08:47:10.666Z,92.52
2018-02-08T08:49:40.148Z,92.22
2018-02-08T08:52:09.513Z,92.65
2018-02-08T08:54:38.819Z,92.82
2018-02-08T08:57:07.741Z,91.86
2018-02-08T08:59:36.756Z,91.52
2018-02-08T09:02:06.131Z,92.57
2018-02-08T09:04:35.650Z,91.86
2018-02-08T09:07:04.772Z,92.64
2018-02-08T09:09:33.877Z,91.98
2018-02-08T09:12:03.470Z,92.58
2018-02-08T09:14:32.658Z,93.11
2018-02-08T09:17:02.073Z,92.99
2018-02-08T09:19:31.410Z,93.34
2018-02-08T09:22:00.785Z,93.15
2018-02-08T09:24:30.264Z,93.16
2018-02-08T09:26:59.413Z,92.44
2018-02-08T09:29:29.061Z,89.37
2018-02-08T09:31:58.486Z,87.89
2018-02-08T09:34:27.704Z,89.37
2018-02-08T09:36:57.196Z,87.76
2018-02-08T09:39:26.343Z,85.70
2018-02-08T09:41:55.802Z,85.18
2018-02-08T09:44:25.143Z,88.21
2018-02-08T09:46:54.389Z,89.11
2018-02-08T09:49:23.534Z,90.35
2018-02-08T09:51:53.379Z,87.49
2018-02-08T09:54:23.328Z,87.25
2018-02-08T09:56:53.033Z,86.24
2018-02-08T09:59:22.593Z,87.61
2018-02-08T10:01:52.050Z,87.04
2018-02-08T10:04:21.589Z,85.33
2018-02-08T10:06:51.155Z,85.51
2018-02-08T10:09:20.574Z,85.39
2018-02-08T10:11:49.890Z,85.00
2018-02-08T10:14:19.404Z,85.11
2018-02-08T10:16:48.940Z,84.88
2018-02-08T10:19:18.798Z,84.97
2018-02-08T10:21:48.237Z,84.75
2018-02-08T10:24:17.528Z,84.63
2018-02-08T10:26:47.018Z,83.59
2018-02-08T10:29:16.630Z,84.09
2018-02-08T10:31:45.913Z,82.83
2018-02-08T10:34:15.324Z,83.91
2018-02-08T10:36:44.725Z,83.36
2018-02-08T10:39:14.072Z,83.36
2018-02-08T10:41:43.541Z,83.53
2018-02-08T10:44:12.513Z,82.00
2018-02-08T10:46:41.662Z,83.20
2018-02-08T10:49:11.737Z,82.36
2018-02-08T10:51:41.652Z,79.78
2018-02-08T10:54:10.992Z,79.39
2018-02-08T10:56:40.634Z,79.08
2018-02-08T10:59:10.786Z,79.00
2018-02-08T11:01:40.246Z,79.08
2018-02-08T11:04:09.661Z,79.87
2018-02-08T11:06:38.935Z,81.80
2018-02-08T11:09:08.402Z,82.19
2018-02-08T11:11:37.625Z,82.79
2018-02-08T11:14:07.794Z,81.78
2018-02-08T11:16:36.987Z,82.00
2018-02-08T11:19:06.461Z,81.57
2018-02-08T11:21:35.825Z,81.54
2018-02-08T11:24:04.937Z,81.11
2018-02-08T11:26:34.565Z,80.57
2018-02-08T11:29:03.628Z,80.60
2018-02-08T11:31:32.689Z,80.97
2018-02-08T11:34:01.849Z,82.08
2018-02-08T11:36:31.626Z,82.69
2018-02-08T11:39:01.127Z,82.84
2018-02-08T11:41:30.461Z,82.78
2018-02-08T11:44:00.161Z,82.25
2018-02-08T11:46:29.645Z,82.77
2018-02-08T11:48:59.047Z,83.14
2018-02-08T11:51:28.812Z,82.77
2018-02-08T11:53:58.166Z,81.66
2018-02-08T11:56:27.768Z,80.72
2018-02-08T11:58:57.624Z,81.08
2018-02-08T12:01:26.989Z,81.29
2018-02-08T12:03:56.641Z,81.08
2018-02-08T12:06:26.113Z,80.86
2018-02-08T12:08:55.656Z,80.90
2018-02-08T12:11:25.681Z,81.30
2018-02-08T12:13:54.884Z,80.39
2018-02-08T12:16:24.286Z,80.38
2018-02-08T12:18:53.534Z,80.79
2018-02-08T12:21:23.045Z,80.41
2018-02-08T12:23:52.697Z,80.28
2018-02-08T12:26:22.305Z,80.25
2018-02-08T12:28:51.830Z,80.33
2018-02-08T12:31:21.097Z,80.29
2018-02-08T12:33:50.366Z,80.80
2018-02-08T12:36:19.593Z,81.31
2018-02-08T12:38:48.893Z,80.11
2018-02-08T12:41:18.664Z,80.85
2018-02-08T12:43:47.858Z,80.59
2018-02-08T12:46:17.342Z,80.48
2018-02-08T12:48:46.872Z,80.32
2018-02-08T12:51:16.795Z,80.35
2018-02-08T12:53:46.443Z,80.19
2018-02-08T12:56:15.874Z,80.61
2018-02-08T12:58:44.996Z,81.27
2018-02-08T13:01:14.362Z,80.87
2018-02-08T13:03:44.159Z,81.16
2018-02-08T13:06:13.946Z,81.29
2018-02-08T13:08:43.301Z,80.71
2018-02-08T13:11:12.403Z,80.21
2018-02-08T13:13:41.730Z,80.39
2018-02-08T13:16:10.878Z,80.02
2018-02-08T13:18:40.553Z,80.20
2018-02-08T13:21:10.240Z,80.14
2018-02-08T13:23:39.860Z,80.44
2018-02-08T13:26:09.334Z,79.56
2018-02-08T13:28:38.975Z,79.45
2018-02-08T13:31:08.272Z,80.54
2018-02-08T13:33:37.546Z,80.50
2018-02-08T13:36:07.218Z,80.56
2018-02-08T13:38:36.536Z,79.58
2018-02-08T13:41:05.816Z,78.02
2018-02-08T13:43:35.331Z,79.99
2018-02-08T13:46:04.948Z,80.51
2018-02-08T13:48:34.794Z,77.81
2018-02-08T13:51:09.615Z,78.69
2018-02-08T13:56:53.191Z,78.17
2018-02-08T14:02:34.058Z,78.07
2018-02-08T14:05:03.290Z,78.24
2018-02-08T14:07:32.409Z,78.40
2018-02-08T14:10:01.797Z,78.11
2018-02-08T14:12:31.116Z,77.58
2018-02-08T14:15:00.934Z,78.37
2018-02-08T14:17:30.478Z,78.62
2018-02-08T14:20:00.119Z,78.87
2018-02-08T14:22:29.337Z,79.59
2018-02-08T14:24:59.282Z,79.54
2018-02-08T14:27:28.942Z,78.73
2018-02-08T14:29:58.207Z,78.79
2018-02-08T14:32:27.544Z,78.74
2018-02-08T14:34:56.854Z,79.09
2018-02-08T14:37:26.236Z,79.20
2018-02-08T14:39:55.916Z,79.38
2018-02-08T14:42:25.131Z,80.30
2018-02-08T14:44:54.581Z,79.79
2018-02-08T14:47:23.766Z,79.66
2018-02-08T14:49:52.739Z,79.18
2018-02-08T14:52:22.194Z,79.73
2018-02-08T14:54:51.151Z,79.80
2018-02-08T14:57:20.389Z,80.42
2018-02-08T14:59:49.813Z,79.79
2018-02-08T15:02:19.517Z,80.13
2018-02-08T15:04:48.788Z,80.28
2018-02-08T15:07:18.046Z,79.46
2018-02-08T15:09:47.142Z,80.51
2018-02-08T15:12:16.802Z,81.15
2018-02-08T15:14:46.180Z,81.37
2018-02-08T15:17:15.733Z,81.35
2018-02-08T15:19:45.123Z,81.63
2018-02-08T15:22:14.390Z,82.00
2018-02-08T15:24:43.413Z,82.68
2018-02-08T15:27:12.713Z,83.30
2018-02-08T15:29:42.426Z,83.41
2018-02-08T15:32:12.011Z,83.65
2018-02-08T15:34:41.401Z,83.74
2018-02-08T15:37:10.520Z,84.08
2018-02-08T15:39:39.602Z,84.37
2018-02-08T15:42:09.110Z,84.72
2018-02-08T15:44:38.357Z,85.67
2018-02-08T15:47:07.587Z,86.13
2018-02-08T15:49:37.224Z,86.52
2018-02-08T15:52:06.262Z,86.99
2018-02-08T15:54:35.516Z,87.28
2018-02-08T15:57:04.902Z,87.63
2018-02-08T15:59:34.410Z,87.94
2018-02-08T16:02:03.572Z,88.51
2018-02-08T16:04:33.281Z,88.88
2018-02-08T16:07:02.273Z,88.35
2018-02-08T16:09:31.682Z,88.06
2018-02-08T16:12:01.620Z,88.82
2018-02-08T16:14:31.406Z,89.48
2018-02-08T16:17:00.952Z,88.84
2018-02-08T16:19:30.392Z,89.65
2018-02-08T16:21:59.542Z,90.03
2018-02-08T16:24:28.571Z,90.29
2018-02-08T16:26:57.527Z,90.00
2018-02-08T16:29:26.960Z,89.87
2018-02-08T16:31:56.458Z,90.95
2018-02-08T16:34:25.577Z,90.23
2018-02-08T16:36:54.828Z,89.93
2018-02-08T16:39:23.906Z,88.90
2018-02-08T16:41:53.256Z,89.25
2018-02-08T16:44:22.595Z,90.06
2018-02-08T16:46:51.904Z,90.19
2018-02-08T16:49:20.948Z,90.36
2018-02-08T16:51:50.274Z,89.80
2018-02-08T16:54:19.788Z,89.82
2018-02-08T16:56:49.036Z,90.13
2018-02-08T16:59:18.372Z,90.13
2018-02-08T17:01:47.832Z,89.18
2018-02-08T17:04:16.987Z,89.20
2018-02-08T17:06:46.117Z,90.51
2018-02-08T17:09:15.105Z,90.80
2018-02-08T17:11:44.217Z,91.33
2018-02-08T17:14:13.556Z,91.11
2018-02-08T17:16:42.842Z,91.44
2018-02-08T17:19:11.868Z,91.90
2018-02-08T17:21:41.378Z,92.29
2018-02-08T17:24:11.585Z,92.45
2018-02-08T17:26:40.864Z,92.21
2018-02-08T17:29:10.078Z,91.81
2018-02-08T17:31:39.168Z,91.98
2018-02-08T17:34:08.285Z,92.58
2018-02-08T17:36:37.577Z,93.01
2018-02-08T17:39:06.728Z,93.00
2018-02-08T17:41:35.918Z,92.79
2018-02-08T17:44:04.988Z,93.08
2018-02-08T17:46:34.474Z,93.20
2018-02-08T17:49:03.817Z,93.25
2018-02-08T17:51:32.926Z,93.24
2018-02-08T17:54:01.925Z,93.09
2018-02-08T17:56:30.977Z,90.43
2018-02-08T17:59:00.174Z,91.35
2018-02-08T18:01:29.498Z,90.93
2018-02-08T18:03:58.566Z,88.92
2018-02-08T18:06:27.641Z,89.86
2018-02-08T18:08:57.134Z,90.58
2018-02-08T18:11:26.474Z,91.30
2018-02-08T18:13:55.471Z,91.22
2018-02-08T18:16:24.730Z,91.65
2018-02-08T18:18:53.955Z,91.80
2018-02-08T18:21:23.038Z,91.88
2018-02-08T18:23:52.442Z,91.95
2018-02-08T18:26:22.205Z,91.04
2018-02-08T18:28:51.416Z,91.52
2018-02-08T18:31:20.423Z,89.04
2018-02-08T18:33:49.691Z,90.87
2018-02-08T18:36:19.129Z,91.90
2018-02-08T18:38:48.471Z,92.66
2018-02-08T18:41:17.832Z,93.33
2018-02-08T18:43:47.301Z,93.77
2018-02-08T18:46:16.378Z,93.71
2018-02-08T18:48:45.909Z,94.21
2018-02-08T18:51:15.141Z,93.54
2018-02-08T18:53:44.356Z,93.80
2018-02-08T18:56:13.698Z,93.77
2018-02-08T18:58:42.769Z,93.93
2018-02-08T19:01:11.796Z,93.81
2018-02-08T19:03:41.028Z,93.65
2018-02-08T19:06:10.258Z,90.48
2018-02-08T19:08:39.585Z,89.04
2018-02-08T19:11:09.352Z,89.40
2018-02-08T19:13:38.766Z,92.13
2018-02-08T19:16:07.957Z,92.70
2018-02-08T19:18:37.227Z,92.19
2018-02-08T19:21:06.585Z,92.84
2018-02-08T19:23:35.733Z,92.96
2018-02-08T19:26:05.133Z,92.81
2018-02-08T19:28:34.256Z,93.09
2018-02-08T19:31:03.634Z,93.11
2018-02-08T19:33:32.987Z,93.14
2018-02-08T19:36:02.068Z,92.97
2018-02-08T19:38:31.718Z,93.40
2018-02-08T19:41:01.118Z,93.26
2018-02-08T19:43:30.723Z,93.31
2018-02-08T19:46:00.212Z,93.51
2018-02-08T19:48:34.181Z,93.37
2018-02-08T19:51:03.811Z,94.32
2018-02-08T19:53:33.145Z,94.48
2018-02-08T19:56:02.714Z,93.82
2018-02-08T19:58:32.177Z,90.41
2018-02-08T20:01:02.228Z,91.04
2018-02-08T20:03:31.688Z,93.69
2018-02-08T20:06:00.971Z,94.22
2018-02-08T20:08:30.933Z,94.42
2018-02-08T20:11:00.514Z,95.13
2018-02-08T20:13:29.879Z,98.13
2018-02-08T20:15:59.307Z,93.03
2018-02-08T20:18:28.997Z,93.41
2018-02-08T20:20:58.392Z,94.96
2018-02-08T20:23:27.709Z,95.53
2018-02-08T20:25:57.008Z,95.10
2018-02-08T20:28:26.351Z,95.53
2018-02-08T20:31:01.029Z,95.78
2018-02-08T20:33:30.478Z,96.24
2018-02-08T20:35:59.674Z,96.70
2018-02-08T20:38:29.034Z,96.80
2018-02-08T20:40:58.752Z,97.17
2018-02-08T20:43:35.725Z,97.25
2018-02-08T20:46:05.240Z,97.40
2018-02-08T20:48:34.545Z,96.41
2018-02-08T20:51:03.819Z,95.82
2018-02-08T20:53:33.336Z,94.02
2018-02-08T20:56:02.838Z,95.64
2018-02-08T20:58:32.121Z,96.08
2018-02-08T21:01:01.426Z,96.83
2018-02-08T21:03:30.736Z,96.13
2018-02-08T21:05:59.871Z,95.01
2018-02-08T21:08:29.501Z,98.08
2018-02-08T21:10:58.929Z,95.18
2018-02-08T21:13:28.240Z,96.46
2018-02-08T21:15:57.642Z,96.61
2018-02-08T21:18:26.943Z,96.42
2018-02-08T21:20:56.121Z,95.70
2018-02-08T21:23:25.341Z,95.64
2018-02-08T21:25:54.910Z,96.06
2018-02-08T21:28:24.460Z,96.60
2018-02-08T21:30:54.441Z,96.98
2018-02-08T21:33:23.929Z,97.63
2018-02-08T21:35:53.778Z,97.12
2018-02-08T21:38:23.362Z,95.64
2018-02-08T21:40:52.939Z,96.08
2018-02-08T21:43:22.677Z,96.44
2018-02-08T21:45:51.999Z,95.24
2018-02-08T21:48:21.522Z,96.01
2018-02-08T21:50:51.309Z,95.56
2018-02-08T21:53:21.188Z,95.42
2018-02-08T21:55:51.065Z,96.33
2018-02-08T21:58:20.416Z,94.11
2018-02-08T22:00:49.665Z,93.41
2018-02-08T22:03:19.238Z,94.36
2018-02-08T22:05:48.988Z,95.78
2018-02-08T22:08:18.867Z,96.82
2018-02-08T22:10:48.299Z,98.00
2018-02-08T22:13:17.732Z,98.20
2018-02-08T22:15:47.281Z,96.01
2018-02-08T22:18:16.513Z,96.92
2018-02-08T22:20:45.992Z,97.69
2018-02-08T22:23:15.276Z,98.23
2018-02-08T22:25:44.760Z,98.44
2018-02-08T22:28:14.189Z,98.94
2018-02-08T22:30:43.642Z,97.07
2018-02-08T22:33:12.919Z,96.64
2018-02-08T22:35:42.208Z,97.04
2018-02-08T22:38:11.553Z,96.46
2018-02-08T22:40:40.833Z,97.23
2018-02-08T22:43:10.322Z,96.19
2018-02-08T22:45:39.644Z,96.60
2018-02-08T22:48:08.987Z,94.20
2018-02-08T22:50:38.761Z,94.51
2018-02-08T22:53:08.053Z,96.51
2018-02-08T22:55:37.209Z,97.36
2018-02-08T22:58:06.516Z,98.06
2018-02-08T23:00:35.942Z,98.53
2018-02-08T23:03:05.004Z,98.99
2018-02-08T23:05:34.348Z,98.05
2018-02-08T23:08:03.722Z,98.87
2018-02-08T23:10:33.369Z,99.29
2018-02-08T23:13:02.962Z,99.41
2018-02-08T23:15:32.390Z,99.50
2018-02-08T23:18:01.995Z,99.57
2018-02-08T23:20:31.306Z,100.00
2018-02-08T23:23:00.863Z,100.00
2018-02-08T23:25:30.289Z,100.00
2018-02-08T23:27:59.860Z,100.00
2018-02-08T23:30:29.290Z,100.00
2018-02-08T23:32:58.680Z,100.00
2018-02-08T23:35:28.010Z,100.00
2018-02-08T23:37:58.633Z,100.00
2018-02-08T23:40:28.762Z,100.00
2018-02-08T23:42:58.170Z,100.00
2018-02-08T23:45:27.431Z,100.00
2018-02-08T23:47:57.010Z,100.00
2018-02-08T23:50:26.888Z,100.00
2018-02-08T23:52:56.251Z,100.00
2018-02-08T23:55:25.413Z,100.00
2018-02-08T23:57:55.098Z,100.00
